Time;durP1;ratioP1;P1;durP2;ratioP2;P2;SDS_P1;SDS_P2;PMS_P1;PMS_P2;Temp;Humidity;BMP_temperature;BMP_pressure;BME280_temperature;BME280_humidity;BME280_pressure;Samples;Min_cycle;Max_cycle;Signal;HPM_P1;HPM_P2
2023/02/15 00:00:28;;;;;;;846.60;767.87;;;1.50;99.90;;;;;;5041982;28;20455;-83
2023/02/15 00:02:55;;;;;;;844.40;765.93;;;1.50;99.90;;;;;;5042730;28;20459;-84
2023/02/15 00:05:21;;;;;;;840.57;763.27;;;1.50;99.90;;;;;;5042280;28;20456;-83
2023/02/15 00:07:48;;;;;;;823.27;747.30;;;1.50;99.90;;;;;;5022387;28;20492;-82
2023/02/15 00:10:17;;;;;;;820.30;742.60;;;1.50;99.90;;;;;;5040381;28;20472;-83
2023/02/15 00:12:44;;;;;;;821.77;745.47;;;1.50;99.90;;;;;;5041871;28;20492;-84
2023/02/15 00:15:12;;;;;;;820.97;743.33;;;1.50;99.90;;;;;;5041750;28;20460;-84
2023/02/15 00:17:39;;;;;;;826.97;746.60;;;1.40;99.90;;;;;;5042233;28;20483;-83
2023/02/15 00:20:07;;;;;;;822.63;744.87;;;1.40;99.90;;;;;;5041764;28;20232;-83
2023/02/15 00:22:33;;;;;;;827.60;747.80;;;1.40;99.90;;;;;;5041886;28;20456;-83
2023/02/15 00:25:00;;;;;;;826.20;746.77;;;1.30;99.90;;;;;;5041244;28;20833;-84
2023/02/15 00:27:28;;;;;;;856.27;776.40;;;1.30;99.90;;;;;;5042035;28;20480;-83
2023/02/15 00:29:55;;;;;;;843.70;764.83;;;1.20;99.90;;;;;;5041781;28;20476;-83
2023/02/15 00:32:21;;;;;;;846.30;767.23;;;1.10;99.90;;;;;;5041917;28;20463;-82
2023/02/15 00:34:48;;;;;;;848.83;768.23;;;1.10;99.90;;;;;;5041535;28;20462;-83
2023/02/15 00:37:15;;;;;;;829.33;749.47;;;1.00;99.90;;;;;;5041875;28;20959;-83
2023/02/15 00:39:42;;;;;;;824.67;742.23;;;1.00;99.90;;;;;;5041214;28;20468;-83
2023/02/15 00:42:08;;;;;;;815.73;734.67;;;1.00;99.90;;;;;;5041781;28;20452;-83
2023/02/15 00:44:36;;;;;;;814.73;731.77;;;1.10;99.90;;;;;;5041218;28;20449;-83
2023/02/15 00:47:03;;;;;;;797.67;714.93;;;1.20;99.90;;;;;;5041632;28;20476;-83
2023/02/15 00:49:30;;;;;;;814.50;729.17;;;1.10;99.90;;;;;;5040774;28;20468;-84
2023/02/15 00:51:57;;;;;;;808.70;724.20;;;1.20;99.90;;;;;;5041004;28;21029;-83
2023/02/15 00:54:23;;;;;;;799.80;716.30;;;1.10;99.90;;;;;;5040436;28;20846;-83
2023/02/15 00:56:50;;;;;;;798.70;715.03;;;1.20;99.90;;;;;;5041181;28;20463;-83
2023/02/15 00:59:17;;;;;;;805.40;722.70;;;1.20;99.90;;;;;;5040970;28;20483;-83
2023/02/15 01:01:45;;;;;;;786.37;704.87;;;1.20;99.90;;;;;;5026649;28;20497;-82
2023/02/15 01:04:12;;;;;;;817.27;735.40;;;1.20;99.90;;;;;;5020814;28;20835;-84
2023/02/15 01:06:38;;;;;;;810.40;729.40;;;1.10;99.90;;;;;;5029631;28;20476;-83
2023/02/15 01:09:05;;;;;;;835.93;753.37;;;1.10;99.90;;;;;;5040167;28;20468;-83
2023/02/15 01:11:32;;;;;;;822.43;740.23;;;1.10;99.90;;;;;;5040717;28;20823;-84
2023/02/15 01:13:59;;;;;;;834.23;752.63;;;1.00;99.90;;;;;;5041288;28;20463;-83
2023/02/15 01:16:28;;;;;;;831.40;750.33;;;0.90;99.90;;;;;;5040305;28;20455;-84
2023/02/15 01:18:57;;;;;;;831.40;749.30;;;0.90;99.90;;;;;;5040417;28;20504;-83
2023/02/15 01:21:28;;;;;;;797.83;717.03;;;0.80;99.90;;;;;;5040111;28;20453;-83
2023/02/15 01:23:54;;;;;;;814.20;733.20;;;0.80;99.90;;;;;;5041214;28;20444;-82
2023/02/15 01:26:21;;;;;;;807.38;725.40;;;0.80;99.90;;;;;;5040445;28;20479;-83
2023/02/15 01:28:48;;;;;;;801.70;720.40;;;0.70;99.90;;;;;;5040794;28;20229;-83
2023/02/15 01:31:16;;;;;;;797.13;715.83;;;0.80;99.90;;;;;;5040287;28;20452;-83
2023/02/15 01:33:43;;;;;;;796.35;713.58;;;0.70;99.90;;;;;;5041194;28;20460;-83
2023/02/15 01:36:11;;;;;;;791.90;709.30;;;0.70;99.90;;;;;;5040869;28;20205;-82
2023/02/15 01:38:39;;;;;;;793.47;709.73;;;0.60;99.90;;;;;;5040291;28;20468;-83
2023/02/15 01:41:23;;;;;;;795.97;712.03;;;0.60;99.90;;;;;;5040411;28;20456;-83
2023/02/15 01:43:52;;;;;;;790.13;705.70;;;0.70;99.90;;;;;;5021350;28;20483;-83
2023/02/15 01:46:22;;;;;;;797.03;712.57;;;0.60;99.90;;;;;;5022377;28;20968;-83
2023/02/15 01:48:53;;;;;;;792.80;709.40;;;0.60;99.90;;;;;;5039962;28;20461;-84
2023/02/15 01:51:25;;;;;;;816.43;731.73;;;0.60;99.90;;;;;;5040375;28;20451;-83
2023/02/15 01:53:54;;;;;;;823.07;739.27;;;0.60;99.90;;;;;;5039827;28;20457;-83
2023/02/15 01:56:25;;;;;;;822.10;737.90;;;0.80;99.90;;;;;;5039700;28;20452;-82
2023/02/15 01:58:57;;;;;;;822.50;737.53;;;0.70;99.90;;;;;;5038990;28;20487;-83
2023/02/15 02:01:25;;;;;;;811.75;726.65;;;0.70;99.90;;;;;;5039562;28;20483;-83
2023/02/15 02:04:01;;;;;;;814.40;728.20;;;0.70;99.90;;;;;;5040186;28;20212;-82
2023/02/15 02:06:30;;;;;;;799.33;715.10;;;0.60;99.90;;;;;;5039884;28;20204;-83
2023/02/15 02:08:58;;;;;;;801.83;718.20;;;0.60;99.90;;;;;;5039482;28;20856;-82
2023/02/15 02:11:25;;;;;;;818.57;733.00;;;0.60;99.90;;;;;;5039332;28;20452;-82
2023/02/15 02:13:53;;;;;;;812.33;727.30;;;0.60;99.90;;;;;;5039494;28;20459;-83
2023/02/15 02:16:25;;;;;;;816.87;729.90;;;0.50;99.90;;;;;;5038243;28;20475;-82
2023/02/15 02:19:10;;;;;;;796.63;711.10;;;0.60;99.90;;;;;;5038678;28;20480;-82
2023/02/15 02:22:14;;;;;;;795.57;707.57;;;0.60;99.90;;;;;;5039154;28;20445;-83
2023/02/15 02:25:08;;;;;;;782.07;697.00;;;0.60;99.90;;;;;;5039192;28;20444;-83
2023/02/15 02:27:40;;;;;;;781.53;695.80;;;0.60;99.90;;;;;;5039008;28;21007;-82
2023/02/15 02:30:44;;;;;;;793.23;707.97;;;0.60;99.90;;;;;;5039262;28;21021;-82
2023/02/15 02:33:50;;;;;;;823.83;738.87;;;0.70;99.90;;;;;;5038572;28;20475;-82
2023/02/15 02:36:25;;;;;;;822.37;738.13;;;0.70;99.90;;;;;;4939612;29;20433;-82
2023/02/15 02:39:13;;;;;;;812.07;726.60;;;0.70;99.90;;;;;;4939841;29;20495;-82
2023/02/15 02:41:57;;;;;;;818.17;730.77;;;0.70;99.90;;;;;;5006895;28;20452;-82
2023/02/15 02:44:27;;;;;;;776.63;693.13;;;0.70;99.90;;;;;;5038954;28;20456;-83
2023/02/15 02:46:59;;;;;;;785.20;701.13;;;0.70;99.90;;;;;;5038787;28;20957;-82
2023/02/15 02:49:37;;;;;;;785.07;700.53;;;0.70;99.90;;;;;;5038562;28;20468;-83
2023/02/15 02:52:07;;;;;;;777.03;687.77;;;0.60;99.90;;;;;;5038804;28;20453;-82
2023/02/15 02:54:36;;;;;;;790.67;704.93;;;0.60;99.90;;;;;;5037954;28;20455;-83
2023/02/15 02:57:08;;;;;;;798.80;713.13;;;0.60;99.90;;;;;;5039269;28;20814;-82
2023/02/15 02:59:40;;;;;;;817.37;731.07;;;0.60;99.90;;;;;;5039294;28;20567;-82
2023/02/15 03:02:12;;;;;;;817.33;727.60;;;0.50;99.90;;;;;;5039077;28;20452;-82
2023/02/15 03:04:46;;;;;;;811.27;723.77;;;0.50;99.90;;;;;;5038271;28;20498;-82
2023/02/15 03:07:21;;;;;;;797.27;710.57;;;0.50;99.90;;;;;;5038028;28;20475;-83
2023/02/15 03:09:51;;;;;;;803.50;714.77;;;0.60;99.90;;;;;;5038161;28;20503;-82
2023/02/15 03:12:23;;;;;;;804.60;717.40;;;0.50;99.90;;;;;;5038154;28;20950;-82
2023/02/15 03:14:53;;;;;;;830.33;743.10;;;0.40;99.90;;;;;;5038242;28;20441;-83
2023/02/15 03:17:23;;;;;;;840.37;752.90;;;0.50;99.90;;;;;;5037536;28;20444;-83
2023/02/15 03:19:54;;;;;;;838.33;750.53;;;0.40;99.90;;;;;;5038229;28;20476;-82
2023/02/15 03:22:27;;;;;;;836.47;749.07;;;0.40;99.90;;;;;;5038242;28;20452;-82
2023/02/15 03:24:59;;;;;;;838.53;752.87;;;0.40;99.90;;;;;;5038645;28;20456;-82
2023/02/15 03:27:28;;;;;;;806.53;721.13;;;0.40;99.90;;;;;;5038550;28;20464;-82
2023/02/15 03:29:59;;;;;;;802.70;716.97;;;0.30;99.90;;;;;;5041344;28;20479;-82
2023/02/15 03:32:27;;;;;;;796.73;709.67;;;0.40;99.90;;;;;;5042434;28;20449;-83
2023/02/15 03:34:56;;;;;;;803.80;716.37;;;0.40;99.90;;;;;;5041812;28;20959;-81
2023/02/15 03:37:29;;;;;;;795.28;708.85;;;0.30;99.90;;;;;;5042473;28;20448;-82
2023/02/15 03:41:08;;;;;;;787.30;700.70;;;0.40;99.90;;;;;;5042680;28;20220;-82
2023/02/15 03:42:51;;;;;;;790.70;703.70;;;0.30;99.90;;;;;;5041341;28;20495;-81
2023/02/15 03:45:25;;;;;;;789.07;703.80;;;0.30;99.90;;;;;;5041870;28;20463;-82
2023/02/15 03:47:55;;;;;;;778.63;693.30;;;0.30;99.90;;;;;;5041631;28;20460;-82
2023/02/15 03:53:17;;;;;;;782.60;695.13;;;0.40;99.90;;;;;;5042450;28;20446;-83
2023/02/15 03:55:47;;;;;;;815.43;729.60;;;0.30;99.90;;;;;;5042388;28;20452;-82
2023/02/15 04:03:50;;;;;;;832.93;744.03;;;0.30;99.90;;;;;;5041869;28;20698;-82
2023/02/15 04:06:18;;;;;;;828.67;739.63;;;0.30;99.90;;;;;;5041290;28;20459;-82
2023/02/15 04:11:29;;;;;;;805.30;717.73;;;0.30;99.90;;;;;;5041184;28;20523;-82
2023/02/15 04:13:57;;;;;;;798.47;710.90;;;0.20;99.90;;;;;;5041031;28;20486;-81
2023/02/15 04:16:23;;;;;;;801.07;713.27;;;0.20;99.90;;;;;;5041298;28;21028;-82
2023/02/15 04:27:05;;;;;;;801.33;715.67;;;0.20;99.90;;;;;;5041235;28;20514;-82
2023/02/15 04:29:32;;;;;;;809.67;722.03;;;0.20;99.90;;;;;;5041109;28;20471;-83
2023/02/15 04:32:01;;;;;;;810.97;721.77;;;0.20;99.90;;;;;;5042558;28;20448;-84
2023/02/15 04:34:27;;;;;;;813.47;724.80;;;0.10;99.90;;;;;;5042237;28;20456;-83
2023/02/15 04:36:56;;;;;;;810.40;723.10;;;0.10;99.90;;;;;;5041262;28;20448;-84
2023/02/15 04:39:22;;;;;;;865.22;778.15;;;0.10;99.90;;;;;;5039729;28;20468;-83
2023/02/15 04:41:49;;;;;;;887.13;797.73;;;0.10;99.90;;;;;;5042007;28;20198;-83
2023/02/15 04:44:16;;;;;;;885.60;794.20;;;0.00;99.90;;;;;;5038757;28;20496;-83
2023/02/15 04:46:43;;;;;;;873.77;783.63;;;0.00;99.90;;;;;;5022054;28;20828;-83
2023/02/15 04:49:10;;;;;;;833.10;742.03;;;0.00;99.90;;;;;;5022049;28;20496;-83
2023/02/15 04:51:37;;;;;;;821.27;717.10;;;0.10;99.90;;;;;;5022485;28;20461;-84
2023/02/15 04:54:05;;;;;;;803.73;706.00;;;0.10;99.90;;;;;;5021004;28;20449;-83
2023/02/15 04:56:33;;;;;;;822.80;732.73;;;0.10;99.90;;;;;;5038150;28;20543;-83
2023/02/15 04:59:00;;;;;;;822.63;733.87;;;0.10;99.90;;;;;;5041517;28;20468;-83
2023/02/15 05:01:27;;;;;;;824.53;734.93;;;0.10;99.90;;;;;;5040684;28;20445;-84
2023/02/15 05:03:53;;;;;;;816.90;728.13;;;0.00;99.90;;;;;;5041216;28;20451;-83
2023/02/15 05:06:20;;;;;;;829.70;738.17;;;0.20;99.90;;;;;;5040858;28;20456;-83
2023/02/15 05:08:47;;;;;;;802.80;716.10;;;0.10;99.90;;;;;;5040961;28;20492;-83
2023/02/15 05:11:15;;;;;;;809.13;721.67;;;0.00;99.90;;;;;;5041337;28;20459;-83
2023/02/15 05:13:42;;;;;;;812.43;714.87;;;-0.10;99.90;;;;;;5040837;28;20452;-83
2023/02/15 05:16:09;;;;;;;802.47;714.00;;;-0.10;99.90;;;;;;5040119;28;20463;-84
2023/02/15 05:18:35;;;;;;;826.67;735.27;;;-0.10;99.90;;;;;;5039964;28;20496;-83
2023/02/15 05:21:02;;;;;;;836.08;744.80;;;-0.10;99.90;;;;;;5039412;28;20955;-83
2023/02/15 05:23:29;;;;;;;846.40;749.97;;;-0.10;99.90;;;;;;5040283;28;20205;-83
2023/02/15 05:28:41;;;;;;;820.70;730.63;;;0.00;99.90;;;;;;5039604;28;20487;-83
2023/02/15 05:31:11;;;;;;;840.05;722.72;;;0.00;99.90;;;;;;5043278;28;20452;-84
2023/02/15 05:33:47;;;;;;;834.27;728.43;;;0.10;99.90;;;;;;5045582;28;20272;-83
2023/02/15 05:36:15;;;;;;;817.17;711.10;;;0.00;99.90;;;;;;5043977;28;20480;-84
2023/02/15 05:38:42;;;;;;;812.13;709.00;;;0.10;99.90;;;;;;5042850;28;20878;-84
2023/02/15 05:41:13;;;;;;;802.17;710.00;;;0.10;99.90;;;;;;5045492;28;20954;-84
2023/02/15 05:43:42;;;;;;;826.73;713.83;;;0.00;99.90;;;;;;5042457;28;20463;-85
2023/02/15 05:46:11;;;;;;;828.80;711.63;;;0.00;99.90;;;;;;5043257;28;20551;-85
2023/02/15 05:48:38;;;;;;;812.43;706.80;;;0.00;99.90;;;;;;5042263;28;20851;-86
2023/02/15 05:51:07;;;;;;;821.50;701.60;;;0.00;99.90;;;;;;5042047;28;20483;-85
2023/02/15 05:53:36;;;;;;;814.97;724.07;;;0.00;99.90;;;;;;5043828;28;20453;-85
2023/02/15 05:56:05;;;;;;;810.70;710.00;;;0.10;99.90;;;;;;5044732;28;20457;-84
2023/02/15 05:58:34;;;;;;;793.27;690.40;;;0.00;99.90;;;;;;5046048;28;20473;-85
2023/02/15 06:01:09;;;;;;;803.20;700.90;;;0.10;99.90;;;;;;5044325;28;21010;-84
2023/02/15 06:03:36;;;;;;;827.63;736.80;;;0.10;99.90;;;;;;5040215;28;20784;-84
2023/02/15 06:06:04;;;;;;;833.03;742.93;;;0.00;99.90;;;;;;5044379;28;20510;-84
2023/02/15 06:08:31;;;;;;;807.93;718.13;;;0.00;99.90;;;;;;5041070;28;20480;-84
2023/02/15 06:10:59;;;;;;;828.30;738.30;;;0.00;99.90;;;;;;5044930;28;21073;-83
2023/02/15 06:13:27;;;;;;;810.00;696.67;;;0.00;99.90;;;;;;5043202;28;20504;-84
2023/02/15 06:15:54;;;;;;;814.57;711.50;;;0.00;99.90;;;;;;5039554;28;20449;-84
2023/02/15 06:18:22;;;;;;;801.90;695.50;;;0.00;99.90;;;;;;5040771;28;20858;-84
2023/02/15 06:20:50;;;;;;;822.85;700.85;;;-0.10;99.90;;;;;;5039890;28;20190;-84
2023/02/15 06:23:17;;;;;;;806.93;695.57;;;-0.10;99.90;;;;;;5027035;28;20213;-84
2023/02/15 06:25:46;;;;;;;815.10;687.90;;;0.00;99.90;;;;;;5038288;28;20547;-84
2023/02/15 06:28:12;;;;;;;796.90;695.00;;;-0.10;99.90;;;;;;5037792;28;21005;-82
2023/02/15 06:30:39;;;;;;;812.03;709.87;;;-0.10;99.90;;;;;;5040476;28;20457;-84
2023/02/15 06:33:06;;;;;;;793.00;705.23;;;-0.10;99.90;;;;;;5039021;28;20448;-84
2023/02/15 06:35:34;;;;;;;808.47;703.47;;;-0.10;99.90;;;;;;5039653;28;20973;-84
2023/02/15 06:38:01;;;;;;;813.93;708.97;;;-0.10;99.90;;;;;;5040920;28;21167;-83
2023/02/15 06:40:28;;;;;;;817.10;710.20;;;-0.10;99.90;;;;;;5040000;28;20459;-85
2023/02/15 06:42:54;;;;;;;809.53;719.80;;;-0.10;99.90;;;;;;5039217;28;20444;-84
2023/02/15 06:45:21;;;;;;;808.47;716.83;;;0.00;99.90;;;;;;5035364;28;20448;-84
2023/02/15 06:47:48;;;;;;;846.70;754.50;;;0.00;99.90;;;;;;5037956;28;20456;-84
2023/02/15 06:50:15;;;;;;;821.13;710.53;;;0.00;99.90;;;;;;5040035;28;20475;-84
2023/02/15 06:52:43;;;;;;;817.23;714.23;;;0.00;99.90;;;;;;5040145;28;20458;-84
2023/02/15 06:55:09;;;;;;;823.20;694.08;;;0.00;99.90;;;;;;5038914;28;20456;-84
2023/02/15 06:57:36;;;;;;;813.83;699.23;;;0.00;99.90;;;;;;5036291;28;20289;-84
2023/02/15 07:00:04;;;;;;;818.78;699.90;;;0.10;99.90;;;;;;5038433;28;20472;-84
2023/02/15 07:02:31;;;;;;;814.37;702.80;;;0.10;99.90;;;;;;5038035;28;20193;-81
2023/02/15 07:04:58;;;;;;;810.97;685.03;;;0.10;99.90;;;;;;5037566;28;20459;-81
2023/02/15 07:07:24;;;;;;;808.83;706.97;;;0.20;99.90;;;;;;5038111;28;20963;-80
2023/02/15 07:09:53;;;;;;;798.47;702.93;;;0.10;99.90;;;;;;5037106;28;20472;-81
2023/02/15 07:15:05;;;;;;;807.03;698.20;;;0.20;99.90;;;;;;5034663;28;20423;-80
2023/02/15 07:17:32;;;;;;;794.37;704.23;;;0.30;99.90;;;;;;5037241;28;20482;-80
2023/02/15 07:19:59;;;;;;;807.33;688.87;;;0.30;99.90;;;;;;5037368;28;20476;-80
2023/02/15 07:22:25;;;;;;;802.60;696.43;;;0.30;99.90;;;;;;5037184;28;20456;-80
2023/02/15 07:24:54;;;;;;;793.23;693.60;;;0.30;99.90;;;;;;5037007;28;20471;-80
2023/02/15 07:27:21;;;;;;;810.75;700.97;;;0.40;99.90;;;;;;5036263;28;20448;-81
2023/02/15 07:29:48;;;;;;;796.90;703.10;;;0.50;99.90;;;;;;5036199;28;20206;-80
2023/02/15 07:32:14;;;;;;;804.63;715.33;;;0.50;99.90;;;;;;5038191;28;20444;-82
2023/02/15 07:34:41;;;;;;;799.87;711.93;;;0.50;99.90;;;;;;5039269;28;20452;-80
2023/02/15 07:37:08;;;;;;;799.40;695.20;;;0.60;99.90;;;;;;5037126;28;20459;-80
2023/02/15 07:39:35;;;;;;;799.60;689.87;;;0.60;99.90;;;;;;5037599;28;20465;-82
2023/02/15 07:42:03;;;;;;;782.57;692.43;;;0.70;99.90;;;;;;5038781;28;20449;-81
2023/02/15 07:44:29;;;;;;;783.67;696.63;;;0.80;99.90;;;;;;5038331;28;20448;-83
2023/02/15 07:46:56;;;;;;;777.50;689.30;;;0.80;99.90;;;;;;5038509;28;20452;-83
2023/02/15 07:49:23;;;;;;;779.17;689.00;;;0.90;99.90;;;;;;5038175;28;20487;-83
2023/02/15 07:51:50;;;;;;;769.70;685.27;;;0.90;99.90;;;;;;5038817;28;20456;-83
2023/02/15 07:54:16;;;;;;;768.37;679.93;;;1.00;99.90;;;;;;5037650;28;20467;-83
2023/02/15 07:56:43;;;;;;;767.87;683.43;;;1.00;99.90;;;;;;5031428;28;20840;-81
2023/02/15 07:59:11;;;;;;;778.80;694.20;;;1.10;99.90;;;;;;5036842;28;20472;-83
2023/02/15 08:01:39;;;;;;;761.33;677.70;;;1.10;99.90;;;;;;5037551;28;20460;-82
2023/02/15 08:04:09;;;;;;;772.37;691.10;;;1.10;99.90;;;;;;5037406;28;20989;-82
2023/02/15 08:06:36;;;;;;;763.90;681.93;;;1.20;99.90;;;;;;5035739;28;20456;-82
2023/02/15 08:09:07;;;;;;;748.47;668.60;;;1.30;99.90;;;;;;5034565;28;20850;-81
2023/02/15 08:11:39;;;;;;;790.38;707.40;;;1.30;99.90;;;;;;5037502;28;20475;-82
2023/02/15 08:14:08;;;;;;;773.43;695.43;;;1.30;99.90;;;;;;5037394;28;20214;-83
2023/02/15 08:16:38;;;;;;;751.43;674.90;;;1.40;99.90;;;;;;5041067;28;20462;-82
2023/02/15 08:19:08;;;;;;;745.57;670.00;;;1.40;99.90;;;;;;5040463;28;20499;-82
2023/02/15 08:21:37;;;;;;;742.40;667.53;;;1.50;99.90;;;;;;5040859;28;20905;-82
2023/02/15 08:24:06;;;;;;;753.77;679.07;;;1.60;99.90;;;;;;5040778;28;20525;-83
2023/02/15 08:26:34;;;;;;;765.90;690.67;;;1.60;99.90;;;;;;5040922;28;20543;-82
2023/02/15 08:29:02;;;;;;;751.85;676.15;;;1.80;99.90;;;;;;5040858;28;20304;-83
2023/02/15 08:31:29;;;;;;;750.70;677.10;;;1.80;99.90;;;;;;5041176;28;20292;-83
2023/02/15 08:33:58;;;;;;;752.83;679.47;;;1.90;99.90;;;;;;5041071;28;20993;-83
2023/02/15 08:36:27;;;;;;;750.80;677.97;;;1.90;99.90;;;;;;5040845;28;20843;-82
2023/02/15 08:38:54;;;;;;;752.17;678.60;;;2.10;99.90;;;;;;5041019;28;20464;-82
2023/02/15 08:41:25;;;;;;;754.77;683.43;;;2.10;99.90;;;;;;5040272;28;20452;-80
2023/02/15 08:43:54;;;;;;;756.20;686.40;;;2.20;99.90;;;;;;5040708;28;20459;-80
2023/02/15 08:46:22;;;;;;;774.23;704.03;;;2.30;99.90;;;;;;5041033;28;20456;-82
2023/02/15 08:48:53;;;;;;;775.13;707.33;;;2.40;99.90;;;;;;5041346;28;20472;-82
2023/02/15 08:51:26;;;;;;;775.67;709.87;;;2.40;99.90;;;;;;5041203;28;20429;-82
2023/02/15 08:53:55;;;;;;;771.13;707.50;;;2.50;99.90;;;;;;5041313;28;20456;-81
2023/02/15 08:56:25;;;;;;;764.77;704.37;;;2.60;99.90;;;;;;5040894;28;20547;-83
2023/02/15 08:58:55;;;;;;;764.40;704.57;;;2.60;99.90;;;;;;5041226;28;20495;-82
2023/02/15 09:01:25;;;;;;;769.17;711.07;;;2.70;99.90;;;;;;5039887;28;20452;-83
2023/02/15 09:03:59;;;;;;;750.50;693.40;;;2.90;99.90;;;;;;5040457;28;20456;-83
2023/02/15 09:06:31;;;;;;;722.73;670.80;;;3.00;99.90;;;;;;5041131;28;20460;-83
2023/02/15 09:09:04;;;;;;;718.07;667.93;;;3.10;99.90;;;;;;5040628;28;20563;-84
2023/02/15 09:11:34;;;;;;;716.00;667.47;;;3.20;99.90;;;;;;5040957;28;20863;-84
2023/02/15 09:14:05;;;;;;;697.90;651.70;;;3.30;99.90;;;;;;5041053;28;20831;-84
2023/02/15 09:16:35;;;;;;;654.43;614.03;;;3.30;99.90;;;;;;5040205;28;20452;-83
2023/02/15 09:19:06;;;;;;;609.90;574.77;;;3.40;99.90;;;;;;5040797;28;20472;-84
2023/02/15 09:21:37;;;;;;;550.57;520.77;;;3.50;99.90;;;;;;5040920;28;20479;-84
2023/02/15 09:24:06;;;;;;;569.33;538.17;;;3.70;99.90;;;;;;5040056;28;20456;-83
2023/02/15 09:26:39;;;;;;;530.97;503.57;;;3.70;99.90;;;;;;5040318;28;20460;-84
2023/02/15 09:29:06;;;;;;;446.87;425.67;;;3.90;99.90;;;;;;5040401;28;20477;-83
2023/02/15 09:31:35;;;;;;;477.60;455.73;;;3.90;99.90;;;;;;5040638;28;20643;-83
2023/02/15 09:34:03;;;;;;;476.73;455.23;;;4.00;99.90;;;;;;5040244;28;20472;-83
2023/02/15 09:36:32;;;;;;;462.03;441.77;;;4.00;99.90;;;;;;5039981;28;20464;-83
2023/02/15 09:39:07;;;;;;;426.90;407.67;;;4.10;99.90;;;;;;5040148;28;20476;-81
2023/02/15 09:42:12;;;;;;;381.40;364.07;;;4.20;99.90;;;;;;5040241;28;20456;-81
2023/02/15 09:44:54;;;;;;;312.27;299.63;;;4.30;99.90;;;;;;5036062;28;20475;-82
2023/02/15 09:47:42;;;;;;;282.43;270.83;;;4.40;99.90;;;;;;5039940;28;20456;-82
2023/02/15 09:50:16;;;;;;;157.93;150.07;;;4.60;99.90;;;;;;5039617;28;20855;-83
2023/02/15 09:53:05;;;;;;;97.93;92.37;;;4.80;99.90;;;;;;5040163;28;20479;-84
2023/02/15 09:55:52;;;;;;;50.67;46.27;;;5.00;99.90;;;;;;5040132;28;20452;-84
2023/02/15 09:58:26;;;;;;;34.03;20.63;;;5.50;99.90;;;;;;5040135;28;20474;-83
2023/02/15 10:01:03;;;;;;;26.20;15.60;;;6.00;99.90;;;;;;5040561;28;20601;-84
2023/02/15 10:03:43;;;;;;;28.73;17.60;;;6.30;99.90;;;;;;5039832;28;20458;-84
2023/02/15 10:06:32;;;;;;;24.17;14.70;;;6.80;99.90;;;;;;5040316;28;20551;-85
2023/02/15 10:09:11;;;;;;;30.57;15.87;;;7.10;99.90;;;;;;5040223;28;20480;-83
2023/02/15 10:11:54;;;;;;;28.20;13.40;;;7.30;99.90;;;;;;5040282;28;20480;-84
2023/02/15 10:14:43;;;;;;;24.63;14.87;;;7.60;99.90;;;;;;5039908;28;20485;-84
2023/02/15 10:17:29;;;;;;;25.53;15.13;;;7.80;99.90;;;;;;5040299;28;20936;-84
2023/02/15 10:20:10;;;;;;;25.77;14.30;;;8.20;99.90;;;;;;5040562;28;20677;-84
2023/02/15 10:22:48;;;;;;;25.77;15.90;;;8.50;99.90;;;;;;5040306;28;20456;-81
2023/02/15 10:25:29;;;;;;;27.90;15.53;;;8.40;99.90;;;;;;5040003;28;20441;-81
2023/02/15 10:28:03;;;;;;;26.57;14.17;;;8.50;99.90;;;;;;5039765;28;20452;-81
2023/02/15 10:30:40;;;;;;;23.00;13.27;;;8.50;99.90;;;;;;5039055;28;20507;-82
2023/02/15 10:33:17;;;;;;;27.03;13.20;;;8.70;99.90;;;;;;5039973;28;20460;-81
2023/02/15 10:35:53;;;;;;;20.80;13.50;;;8.80;99.90;;;;;;5039387;28;20527;-83
2023/02/15 10:38:30;;;;;;;25.33;15.63;;;9.10;99.90;;;;;;5040031;28;20476;-83
2023/02/15 10:41:08;;;;;;;23.90;13.50;;;9.40;99.90;;;;;;5039988;28;20447;-82
2023/02/15 10:43:58;;;;;;;25.93;14.57;;;9.50;99.90;;;;;;5040751;28;20444;-83
2023/02/15 10:46:51;;;;;;;26.60;14.60;;;9.90;99.90;;;;;;5040745;28;20456;-83
2023/02/15 10:49:35;;;;;;;22.67;13.80;;;9.90;98.60;;;;;;5023484;28;20476;-84
2023/02/15 10:52:15;;;;;;;26.47;13.50;;;10.30;97.70;;;;;;5040976;28;20480;-83
2023/02/15 10:54:51;;;;;;;25.47;14.20;;;10.50;97.40;;;;;;5040863;28;20460;-84
2023/02/15 10:57:28;;;;;;;23.93;14.73;;;10.60;95.80;;;;;;5041316;28;20465;-84
2023/02/15 11:00:09;;;;;;;22.63;13.90;;;10.80;94.60;;;;;;5040881;28;20547;-83
2023/02/15 11:02:54;;;;;;;23.63;14.10;;;10.90;95.00;;;;;;5040932;28;20523;-84
2023/02/15 11:05:32;;;;;;;26.37;13.53;;;11.10;93.80;;;;;;5041113;28;20465;-83
2023/02/15 11:08:05;;;;;;;23.17;13.80;;;11.40;92.30;;;;;;5041543;28;20487;-83
2023/02/15 11:10:41;;;;;;;19.57;13.00;;;11.60;91.60;;;;;;5041500;28;20496;-85
2023/02/15 11:13:13;;;;;;;24.17;13.17;;;11.60;91.60;;;;;;5041399;28;20458;-84
2023/02/15 11:15:47;;;;;;;20.07;12.50;;;11.90;91.70;;;;;;5041761;28;20461;-84
2023/02/15 11:18:20;;;;;;;24.60;13.83;;;12.40;90.10;;;;;;5041855;28;20487;-84
2023/02/15 11:20:54;;;;;;;21.57;13.63;;;12.90;87.20;;;;;;5041088;28;20450;-83
2023/02/15 11:23:23;;;;;;;23.73;13.33;;;13.00;86.20;;;;;;5042523;28;20519;-85
2023/02/15 11:26:00;;;;;;;21.87;12.97;;;13.30;82.20;;;;;;5037988;28;20456;-85
2023/02/15 11:28:34;;;;;;;21.70;12.37;;;13.40;81.20;;;;;;5035185;28;20876;-84
2023/02/15 11:31:20;;;;;;;20.13;12.20;;;13.50;81.50;;;;;;5038110;28;20476;-86
2023/02/15 11:33:52;;;;;;;18.00;12.00;;;13.10;79.80;;;;;;5040257;28;20478;-85
2023/02/15 11:36:26;;;;;;;17.90;11.47;;;13.50;79.40;;;;;;5039822;28;20996;-89
2023/02/15 11:39:00;;;;;;;21.93;12.03;;;14.10;80.50;;;;;;5038141;28;20879;-86
2023/02/15 11:41:32;;;;;;;26.53;14.40;;;14.50;74.70;;;;;;5039105;28;20479;-85
2023/02/15 11:44:06;;;;;;;22.93;13.53;;;14.70;73.30;;;;;;5039060;28;20458;-85
2023/02/15 11:46:37;;;;;;;20.17;11.87;;;14.80;70.20;;;;;;5040167;28;20465;-85
2023/02/15 11:49:12;;;;;;;22.90;13.73;;;15.20;69.90;;;;;;5039414;28;20469;-87
2023/02/15 11:51:39;;;;;;;23.33;12.10;;;15.30;65.80;;;;;;5042455;28;20937;-84
2023/02/15 11:54:37;;;;;;;19.70;12.10;;;15.30;65.80;;;;;;5044437;28;20514;-82
2023/02/15 11:57:13;;;;;;;21.53;13.60;;;15.40;65.90;;;;;;5039163;28;20468;-84
2023/02/15 11:59:44;;;;;;;23.10;14.53;;;15.60;65.80;;;;;;5042554;28;20577;-86
2023/02/15 12:02:32;;;;;;;22.80;13.63;;;15.70;63.20;;;;;;5023020;28;20491;-84
2023/02/15 12:05:05;;;;;;;20.90;11.90;;;15.50;61.60;;;;;;5025806;28;20448;-84
2023/02/15 12:07:39;;;;;;;19.30;12.10;;;15.80;63.80;;;;;;5042107;28;20444;-84
2023/02/15 12:10:17;;;;;;;19.50;11.77;;;15.80;58.00;;;;;;5043078;28;20622;-84
2023/02/15 12:12:44;;;;;;;20.07;11.87;;;16.20;61.30;;;;;;5042500;28;20437;-85
2023/02/15 12:15:16;;;;;;;22.20;12.50;;;16.00;57.90;;;;;;5042100;28;20475;-84
2023/02/15 12:17:54;;;;;;;20.93;12.20;;;16.00;58.30;;;;;;5026679;28;20483;-84
2023/02/15 12:20:30;;;;;;;22.03;12.70;;;16.30;54.40;;;;;;5045216;28;20519;-84
2023/02/15 12:23:03;;;;;;;17.83;11.70;;;16.10;56.40;;;;;;5044712;28;20450;-83
2023/02/15 12:25:37;;;;;;;21.20;13.53;;;16.60;56.90;;;;;;5045140;28;20477;-83
2023/02/15 12:28:16;;;;;;;19.27;12.20;;;16.70;56.70;;;;;;5045752;28;20461;-84
2023/02/15 12:30:44;;;;;;;21.33;13.17;;;16.40;49.80;;;;;;5046237;28;20443;-83
2023/02/15 12:33:24;;;;;;;17.57;11.70;;;16.30;49.80;;;;;;5043710;28;20456;-83
2023/02/15 12:35:59;;;;;;;23.07;12.47;;;16.40;53.90;;;;;;5043539;28;20449;-85
2023/02/15 12:38:28;;;;;;;20.20;12.97;;;16.50;51.90;;;;;;5043277;28;20496;-86
2023/02/15 12:41:00;;;;;;;18.03;12.17;;;16.90;50.40;;;;;;5041551;28;20473;-84
2023/02/15 12:43:30;;;;;;;19.43;12.30;;;16.90;50.20;;;;;;5035722;28;20453;-83
2023/02/15 12:46:15;;;;;;;24.17;12.80;;;16.90;48.10;;;;;;5036099;28;20459;-83
2023/02/15 12:48:43;;;;;;;18.87;11.47;;;17.20;49.30;;;;;;5044824;28;20499;-86
2023/02/15 12:51:15;;;;;;;21.63;13.27;;;17.40;47.10;;;;;;5044543;28;20447;-85
2023/02/15 12:53:43;;;;;;;18.23;12.70;;;17.50;46.80;;;;;;5043541;28;20469;-83
2023/02/15 12:56:11;;;;;;;16.97;10.97;;;17.60;47.00;;;;;;5044455;28;20453;-83
2023/02/15 12:58:39;;;;;;;20.70;11.23;;;17.90;46.00;;;;;;5044165;28;20482;-83
2023/02/15 13:01:15;;;;;;;18.93;11.80;;;17.90;43.40;;;;;;5044518;28;20499;-83
2023/02/15 13:03:57;;;;;;;18.23;11.10;;;18.10;43.20;;;;;;5043395;28;20558;-82
2023/02/15 13:06:28;;;;;;;17.03;11.10;;;18.10;42.60;;;;;;5043372;28;20533;-83